sensor_id;sensor_type;location;lat;lon;timestamp;P1;durP1;ratioP1;P2;durP2;ratioP2
47605;SDS011;55448;51.330;4.946;2022-07-29T00:02:26;6.13;;;2.40;;
47605;SDS011;55448;51.330;4.946;2022-07-29T00:04:52;11.38;;;2.17;;
47605;SDS011;55448;51.330;4.946;2022-07-29T00:07:18;7.82;;;2.55;;
47605;SDS011;55448;51.330;4.946;2022-07-29T00:09:43;10.73;;;2.30;;
47605;SDS011;55448;51.330;4.946;2022-07-29T00:12:09;10.73;;;2.78;;
47605;SDS011;55448;51.330;4.946;2022-07-29T00:14:35;7.70;;;2.33;;
47605;SDS011;55448;51.330;4.946;2022-07-29T00:17:01;10.75;;;2.53;;
47605;SDS011;55448;51.330;4.946;2022-07-29T00:19:26;9.35;;;2.92;;
47605;SDS011;55448;51.330;4.946;2022-07-29T00:21:52;6.40;;;2.75;;
47605;SDS011;55448;51.330;4.946;2022-07-29T00:24:18;6.72;;;3.30;;
47605;SDS011;55448;51.330;4.946;2022-07-29T00:26:43;11.88;;;3.17;;
47605;SDS011;55448;51.330;4.946;2022-07-29T00:29:09;12.65;;;2.53;;
47605;SDS011;55448;51.330;4.946;2022-07-29T00:31:35;18.30;;;3.75;;
47605;SDS011;55448;51.330;4.946;2022-07-29T00:34:01;12.60;;;2.70;;
47605;SDS011;55448;51.330;4.946;2022-07-29T00:36:27;13.38;;;3.30;;
47605;SDS011;55448;51.330;4.946;2022-07-29T00:38:53;13.02;;;3.03;;
47605;SDS011;55448;51.330;4.946;2022-07-29T00:41:19;9.30;;;3.38;;
47605;SDS011;55448;51.330;4.946;2022-07-29T00:43:44;10.68;;;3.53;;
47605;SDS011;55448;51.330;4.946;2022-07-29T00:46:10;10.82;;;3.55;;
47605;SDS011;55448;51.330;4.946;2022-07-29T00:48:36;5.82;;;3.10;;
47605;SDS011;55448;51.330;4.946;2022-07-29T00:51:03;9.65;;;3.20;;
47605;SDS011;55448;51.330;4.946;2022-07-29T00:53:30;7.00;;;3.90;;
47605;SDS011;55448;51.330;4.946;2022-07-29T00:55:56;12.27;;;3.60;;
47605;SDS011;55448;51.330;4.946;2022-07-29T00:58:23;8.95;;;3.05;;
47605;SDS011;55448;51.330;4.946;2022-07-29T01:00:49;7.80;;;3.25;;
47605;SDS011;55448;51.330;4.946;2022-07-29T01:03:15;9.98;;;3.67;;
47605;SDS011;55448;51.330;4.946;2022-07-29T01:05:41;7.53;;;3.63;;
47605;SDS011;55448;51.330;4.946;2022-07-29T01:08:10;6.05;;;3.15;;
47605;SDS011;55448;51.330;4.946;2022-07-29T01:10:38;7.32;;;2.92;;
47605;SDS011;55448;51.330;4.946;2022-07-29T01:13:04;8.57;;;3.28;;
47605;SDS011;55448;51.330;4.946;2022-07-29T01:15:30;14.88;;;4.00;;
47605;SDS011;55448;51.330;4.946;2022-07-29T01:18:03;9.07;;;3.58;;
47605;SDS011;55448;51.330;4.946;2022-07-29T01:29:01;16.30;;;3.30;;
47605;SDS011;55448;51.330;4.946;2022-07-29T01:34:07;8.80;;;3.65;;
47605;SDS011;55448;51.330;4.946;2022-07-29T01:36:47;9.18;;;3.35;;
47605;SDS011;55448;51.330;4.946;2022-07-29T01:39:21;8.43;;;2.92;;
47605;SDS011;55448;51.330;4.946;2022-07-29T01:42:03;7.95;;;3.28;;
47605;SDS011;55448;51.330;4.946;2022-07-29T01:44:54;10.80;;;4.78;;
47605;SDS011;55448;51.330;4.946;2022-07-29T01:47:22;11.63;;;4.13;;
47605;SDS011;55448;51.330;4.946;2022-07-29T01:49:52;9.15;;;3.85;;
47605;SDS011;55448;51.330;4.946;2022-07-29T01:52:31;8.60;;;3.80;;
47605;SDS011;55448;51.330;4.946;2022-07-29T01:55:04;7.07;;;3.42;;
47605;SDS011;55448;51.330;4.946;2022-07-29T01:57:38;10.38;;;2.90;;
47605;SDS011;55448;51.330;4.946;2022-07-29T02:00:07;8.07;;;3.15;;
47605;SDS011;55448;51.330;4.946;2022-07-29T02:02:33;10.23;;;2.85;;
47605;SDS011;55448;51.330;4.946;2022-07-29T02:05:02;11.85;;;3.70;;
47605;SDS011;55448;51.330;4.946;2022-07-29T02:07:30;10.07;;;3.47;;
47605;SDS011;55448;51.330;4.946;2022-07-29T02:09:58;10.23;;;3.78;;
47605;SDS011;55448;51.330;4.946;2022-07-29T02:12:25;7.13;;;3.40;;
47605;SDS011;55448;51.330;4.946;2022-07-29T02:14:53;8.63;;;3.03;;
47605;SDS011;55448;51.330;4.946;2022-07-29T02:17:23;10.23;;;3.67;;
47605;SDS011;55448;51.330;4.946;2022-07-29T02:19:53;12.10;;;3.40;;
47605;SDS011;55448;51.330;4.946;2022-07-29T02:22:22;9.60;;;3.50;;
47605;SDS011;55448;51.330;4.946;2022-07-29T02:24:50;5.57;;;3.38;;
47605;SDS011;55448;51.330;4.946;2022-07-29T02:27:17;8.48;;;4.07;;
47605;SDS011;55448;51.330;4.946;2022-07-29T02:29:45;10.23;;;3.53;;
47605;SDS011;55448;51.330;4.946;2022-07-29T02:32:12;13.50;;;3.38;;
47605;SDS011;55448;51.330;4.946;2022-07-29T02:34:41;10.20;;;4.05;;
47605;SDS011;55448;51.330;4.946;2022-07-29T02:37:11;17.08;;;3.70;;
47605;SDS011;55448;51.330;4.946;2022-07-29T02:39:39;6.72;;;3.78;;
47605;SDS011;55448;51.330;4.946;2022-07-29T02:42:07;6.85;;;3.55;;
47605;SDS011;55448;51.330;4.946;2022-07-29T02:44:36;6.00;;;3.67;;
47605;SDS011;55448;51.330;4.946;2022-07-29T02:49:38;11.73;;;3.90;;
47605;SDS011;55448;51.330;4.946;2022-07-29T02:55:09;7.57;;;3.75;;
47605;SDS011;55448;51.330;4.946;2022-07-29T02:57:51;13.57;;;4.18;;
47605;SDS011;55448;51.330;4.946;2022-07-29T03:00:27;9.25;;;3.72;;
47605;SDS011;55448;51.330;4.946;2022-07-29T03:02:56;12.13;;;3.90;;
47605;SDS011;55448;51.330;4.946;2022-07-29T03:05:24;8.65;;;3.70;;
47605;SDS011;55448;51.330;4.946;2022-07-29T03:07:53;7.40;;;3.88;;
47605;SDS011;55448;51.330;4.946;2022-07-29T03:10:21;14.05;;;4.63;;
47605;SDS011;55448;51.330;4.946;2022-07-29T03:12:49;11.98;;;3.80;;
47605;SDS011;55448;51.330;4.946;2022-07-29T03:15:15;9.65;;;4.82;;
47605;SDS011;55448;51.330;4.946;2022-07-29T03:17:42;9.93;;;4.43;;
47605;SDS011;55448;51.330;4.946;2022-07-29T03:20:09;12.02;;;3.67;;
47605;SDS011;55448;51.330;4.946;2022-07-29T03:22:39;8.60;;;4.05;;
47605;SDS011;55448;51.330;4.946;2022-07-29T03:25:12;6.82;;;3.90;;
47605;SDS011;55448;51.330;4.946;2022-07-29T03:27:42;12.40;;;4.55;;
47605;SDS011;55448;51.330;4.946;2022-07-29T03:30:08;11.98;;;4.75;;
47605;SDS011;55448;51.330;4.946;2022-07-29T03:32:35;10.63;;;4.75;;
47605;SDS011;55448;51.330;4.946;2022-07-29T03:35:01;12.02;;;4.85;;
47605;SDS011;55448;51.330;4.946;2022-07-29T03:37:28;7.57;;;4.50;;
47605;SDS011;55448;51.330;4.946;2022-07-29T03:39:55;12.68;;;5.55;;
47605;SDS011;55448;51.330;4.946;2022-07-29T03:42:23;9.43;;;5.15;;
47605;SDS011;55448;51.330;4.946;2022-07-29T03:44:52;11.35;;;5.15;;
47605;SDS011;55448;51.330;4.946;2022-07-29T03:47:20;9.05;;;5.30;;
47605;SDS011;55448;51.330;4.946;2022-07-29T03:49:48;9.18;;;4.50;;
47605;SDS011;55448;51.330;4.946;2022-07-29T03:52:16;10.15;;;4.70;;
47605;SDS011;55448;51.330;4.946;2022-07-29T03:54:42;7.45;;;4.50;;
47605;SDS011;55448;51.330;4.946;2022-07-29T03:57:09;12.82;;;5.18;;
47605;SDS011;55448;51.330;4.946;2022-07-29T03:59:36;9.88;;;5.25;;
47605;SDS011;55448;51.330;4.946;2022-07-29T04:02:03;11.88;;;5.20;;
47605;SDS011;55448;51.330;4.946;2022-07-29T04:04:33;14.63;;;6.28;;
47605;SDS011;55448;51.330;4.946;2022-07-29T04:06:59;15.18;;;6.22;;
47605;SDS011;55448;51.330;4.946;2022-07-29T04:09:25;10.38;;;5.53;;
47605;SDS011;55448;51.330;4.946;2022-07-29T04:11:51;13.85;;;7.03;;
47605;SDS011;55448;51.330;4.946;2022-07-29T04:14:17;14.82;;;6.65;;
47605;SDS011;55448;51.330;4.946;2022-07-29T04:16:43;12.00;;;6.07;;
47605;SDS011;55448;51.330;4.946;2022-07-29T04:19:09;12.48;;;6.05;;
47605;SDS011;55448;51.330;4.946;2022-07-29T04:21:38;15.32;;;5.97;;
47605;SDS011;55448;51.330;4.946;2022-07-29T04:24:05;12.32;;;7.22;;
47605;SDS011;55448;51.330;4.946;2022-07-29T04:26:31;13.10;;;6.72;;
47605;SDS011;55448;51.330;4.946;2022-07-29T04:28:57;9.65;;;6.95;;
47605;SDS011;55448;51.330;4.946;2022-07-29T04:31:23;10.68;;;6.40;;
47605;SDS011;55448;51.330;4.946;2022-07-29T04:33:48;10.35;;;6.15;;
47605;SDS011;55448;51.330;4.946;2022-07-29T04:36:14;13.52;;;6.30;;
47605;SDS011;55448;51.330;4.946;2022-07-29T04:38:40;9.25;;;6.10;;
47605;SDS011;55448;51.330;4.946;2022-07-29T04:41:05;7.53;;;5.97;;
47605;SDS011;55448;51.330;4.946;2022-07-29T04:43:32;12.35;;;6.63;;
47605;SDS011;55448;51.330;4.946;2022-07-29T04:45:58;12.50;;;6.10;;
47605;SDS011;55448;51.330;4.946;2022-07-29T04:48:25;18.52;;;6.78;;
47605;SDS011;55448;51.330;4.946;2022-07-29T04:50:51;9.95;;;6.15;;
47605;SDS011;55448;51.330;4.946;2022-07-29T04:53:17;12.32;;;5.85;;
47605;SDS011;55448;51.330;4.946;2022-07-29T04:55:43;15.60;;;6.72;;
47605;SDS011;55448;51.330;4.946;2022-07-29T04:58:09;12.68;;;7.30;;
47605;SDS011;55448;51.330;4.946;2022-07-29T05:00:35;18.88;;;6.95;;
47605;SDS011;55448;51.330;4.946;2022-07-29T05:03:01;10.43;;;6.82;;
47605;SDS011;55448;51.330;4.946;2022-07-29T05:05:27;11.80;;;5.90;;
47605;SDS011;55448;51.330;4.946;2022-07-29T05:07:53;10.90;;;6.55;;
47605;SDS011;55448;51.330;4.946;2022-07-29T05:10:18;12.23;;;6.97;;
47605;SDS011;55448;51.330;4.946;2022-07-29T05:12:44;13.07;;;6.95;;
47605;SDS011;55448;51.330;4.946;2022-07-29T05:15:10;14.43;;;7.28;;
47605;SDS011;55448;51.330;4.946;2022-07-29T05:17:36;11.52;;;7.15;;
47605;SDS011;55448;51.330;4.946;2022-07-29T05:20:02;11.48;;;7.78;;
47605;SDS011;55448;51.330;4.946;2022-07-29T05:22:28;16.13;;;7.72;;
47605;SDS011;55448;51.330;4.946;2022-07-29T05:24:54;15.73;;;7.90;;
47605;SDS011;55448;51.330;4.946;2022-07-29T05:27:20;14.90;;;9.07;;
47605;SDS011;55448;51.330;4.946;2022-07-29T05:29:45;15.32;;;7.68;;
47605;SDS011;55448;51.330;4.946;2022-07-29T05:32:11;13.32;;;7.60;;
47605;SDS011;55448;51.330;4.946;2022-07-29T05:34:38;12.50;;;6.82;;
47605;SDS011;55448;51.330;4.946;2022-07-29T05:37:04;14.00;;;7.03;;
47605;SDS011;55448;51.330;4.946;2022-07-29T05:39:30;12.35;;;6.68;;
47605;SDS011;55448;51.330;4.946;2022-07-29T05:41:55;13.05;;;7.60;;
47605;SDS011;55448;51.330;4.946;2022-07-29T05:44:21;10.48;;;7.13;;
47605;SDS011;55448;51.330;4.946;2022-07-29T05:46:47;14.43;;;6.60;;
47605;SDS011;55448;51.330;4.946;2022-07-29T05:49:12;12.60;;;7.90;;
47605;SDS011;55448;51.330;4.946;2022-07-29T05:51:38;11.57;;;7.28;;
47605;SDS011;55448;51.330;4.946;2022-07-29T05:54:04;12.45;;;7.65;;
47605;SDS011;55448;51.330;4.946;2022-07-29T05:56:30;13.38;;;7.07;;
47605;SDS011;55448;51.330;4.946;2022-07-29T05:58:55;13.13;;;6.95;;
47605;SDS011;55448;51.330;4.946;2022-07-29T06:01:21;13.75;;;7.30;;
47605;SDS011;55448;51.330;4.946;2022-07-29T06:03:46;9.35;;;6.75;;
47605;SDS011;55448;51.330;4.946;2022-07-29T06:06:12;10.80;;;6.47;;
47605;SDS011;55448;51.330;4.946;2022-07-29T06:08:38;10.43;;;6.18;;
47605;SDS011;55448;51.330;4.946;2022-07-29T06:11:05;12.95;;;6.60;;
47605;SDS011;55448;51.330;4.946;2022-07-29T06:13:31;13.43;;;6.40;;
47605;SDS011;55448;51.330;4.946;2022-07-29T06:15:56;13.50;;;7.43;;
47605;SDS011;55448;51.330;4.946;2022-07-29T06:18:22;10.68;;;7.22;;
47605;SDS011;55448;51.330;4.946;2022-07-29T06:20:51;10.57;;;7.80;;
47605;SDS011;55448;51.330;4.946;2022-07-29T06:23:17;16.55;;;7.75;;
47605;SDS011;55448;51.330;4.946;2022-07-29T06:25:43;9.10;;;6.03;;
47605;SDS011;55448;51.330;4.946;2022-07-29T06:28:09;7.97;;;6.00;;
47605;SDS011;55448;51.330;4.946;2022-07-29T06:30:35;15.50;;;6.10;;
47605;SDS011;55448;51.330;4.946;2022-07-29T06:33:01;10.30;;;5.82;;
47605;SDS011;55448;51.330;4.946;2022-07-29T06:35:27;11.55;;;6.72;;
47605;SDS011;55448;51.330;4.946;2022-07-29T06:37:53;11.88;;;6.13;;
47605;SDS011;55448;51.330;4.946;2022-07-29T06:40:19;12.20;;;6.35;;
47605;SDS011;55448;51.330;4.946;2022-07-29T06:43:03;8.93;;;6.30;;
47605;SDS011;55448;51.330;4.946;2022-07-29T06:45:29;9.88;;;6.43;;
47605;SDS011;55448;51.330;4.946;2022-07-29T06:47:54;9.52;;;5.75;;
47605;SDS011;55448;51.330;4.946;2022-07-29T06:50:20;13.02;;;6.50;;
47605;SDS011;55448;51.330;4.946;2022-07-29T06:52:46;17.38;;;6.53;;
47605;SDS011;55448;51.330;4.946;2022-07-29T06:55:13;14.80;;;5.78;;
47605;SDS011;55448;51.330;4.946;2022-07-29T06:57:40;11.50;;;5.63;;
47605;SDS011;55448;51.330;4.946;2022-07-29T07:00:07;13.15;;;5.82;;
47605;SDS011;55448;51.330;4.946;2022-07-29T07:02:34;12.00;;;6.38;;
47605;SDS011;55448;51.330;4.946;2022-07-29T07:05:00;9.75;;;5.40;;
47605;SDS011;55448;51.330;4.946;2022-07-29T07:07:27;10.50;;;5.90;;
47605;SDS011;55448;51.330;4.946;2022-07-29T07:09:53;9.30;;;5.72;;
47605;SDS011;55448;51.330;4.946;2022-07-29T07:12:19;6.40;;;5.50;;
47605;SDS011;55448;51.330;4.946;2022-07-29T07:14:44;15.65;;;5.93;;
47605;SDS011;55448;51.330;4.946;2022-07-29T07:17:10;10.02;;;5.32;;
47605;SDS011;55448;51.330;4.946;2022-07-29T07:19:36;9.35;;;5.35;;
47605;SDS011;55448;51.330;4.946;2022-07-29T07:22:01;14.35;;;6.25;;
47605;SDS011;55448;51.330;4.946;2022-07-29T07:24:27;10.52;;;5.60;;
47605;SDS011;55448;51.330;4.946;2022-07-29T07:26:53;6.82;;;5.07;;
47605;SDS011;55448;51.330;4.946;2022-07-29T07:29:18;11.60;;;5.90;;
47605;SDS011;55448;51.330;4.946;2022-07-29T07:31:44;12.27;;;5.15;;
47605;SDS011;55448;51.330;4.946;2022-07-29T07:34:10;14.35;;;6.28;;
47605;SDS011;55448;51.330;4.946;2022-07-29T07:36:36;9.90;;;4.85;;
47605;SDS011;55448;51.330;4.946;2022-07-29T07:39:02;6.13;;;5.30;;
47605;SDS011;55448;51.330;4.946;2022-07-29T07:41:28;9.65;;;4.75;;
47605;SDS011;55448;51.330;4.946;2022-07-29T07:43:54;8.85;;;5.38;;
47605;SDS011;55448;51.330;4.946;2022-07-29T07:46:19;10.15;;;5.18;;
47605;SDS011;55448;51.330;4.946;2022-07-29T07:48:45;9.52;;;5.35;;
47605;SDS011;55448;51.330;4.946;2022-07-29T07:51:11;8.00;;;5.15;;
47605;SDS011;55448;51.330;4.946;2022-07-29T07:53:36;18.63;;;6.05;;
47605;SDS011;55448;51.330;4.946;2022-07-29T07:56:07;8.93;;;5.35;;
47605;SDS011;55448;51.330;4.946;2022-07-29T07:58:33;10.25;;;5.65;;
47605;SDS011;55448;51.330;4.946;2022-07-29T08:01:00;12.40;;;6.18;;
47605;SDS011;55448;51.330;4.946;2022-07-29T08:03:25;8.55;;;5.22;;
47605;SDS011;55448;51.330;4.946;2022-07-29T08:05:51;9.30;;;5.72;;
47605;SDS011;55448;51.330;4.946;2022-07-29T08:08:19;6.93;;;5.35;;
47605;SDS011;55448;51.330;4.946;2022-07-29T08:10:44;8.80;;;5.03;;
47605;SDS011;55448;51.330;4.946;2022-07-29T08:13:24;6.88;;;4.57;;
47605;SDS011;55448;51.330;4.946;2022-07-29T08:15:55;12.63;;;4.82;;
47605;SDS011;55448;51.330;4.946;2022-07-29T08:18:42;10.55;;;6.10;;
47605;SDS011;55448;51.330;4.946;2022-07-29T08:21:09;7.15;;;5.03;;
47605;SDS011;55448;51.330;4.946;2022-07-29T08:23:35;13.77;;;5.85;;
47605;SDS011;55448;51.330;4.946;2022-07-29T08:26:07;8.15;;;5.22;;
47605;SDS011;55448;51.330;4.946;2022-07-29T08:28:36;11.02;;;5.63;;
47605;SDS011;55448;51.330;4.946;2022-07-29T08:31:09;6.40;;;4.97;;
47605;SDS011;55448;51.330;4.946;2022-07-29T08:33:35;8.85;;;5.32;;
47605;SDS011;55448;51.330;4.946;2022-07-29T08:36:01;8.35;;;5.20;;
47605;SDS011;55448;51.330;4.946;2022-07-29T08:38:27;12.80;;;5.78;;
47605;SDS011;55448;51.330;4.946;2022-07-29T08:40:53;9.90;;;5.38;;
47605;SDS011;55448;51.330;4.946;2022-07-29T08:43:19;9.73;;;5.85;;
47605;SDS011;55448;51.330;4.946;2022-07-29T08:45:45;9.02;;;5.53;;
47605;SDS011;55448;51.330;4.946;2022-07-29T08:48:17;9.00;;;5.30;;
47605;SDS011;55448;51.330;4.946;2022-07-29T08:50:45;9.50;;;5.32;;
47605;SDS011;55448;51.330;4.946;2022-07-29T08:53:14;10.20;;;5.28;;
47605;SDS011;55448;51.330;4.946;2022-07-29T08:55:49;9.27;;;5.75;;
47605;SDS011;55448;51.330;4.946;2022-07-29T08:58:15;10.52;;;5.55;;
47605;SDS011;55448;51.330;4.946;2022-07-29T09:00:46;10.40;;;5.45;;
47605;SDS011;55448;51.330;4.946;2022-07-29T09:03:17;9.15;;;4.93;;
47605;SDS011;55448;51.330;4.946;2022-07-29T09:05:45;7.78;;;4.70;;
47605;SDS011;55448;51.330;4.946;2022-07-29T09:08:12;6.68;;;5.15;;
47605;SDS011;55448;51.330;4.946;2022-07-29T09:10:39;14.18;;;5.60;;
47605;SDS011;55448;51.330;4.946;2022-07-29T09:13:05;8.68;;;5.43;;
47605;SDS011;55448;51.330;4.946;2022-07-29T09:15:30;11.55;;;5.40;;
47605;SDS011;55448;51.330;4.946;2022-07-29T09:17:56;8.23;;;4.65;;
47605;SDS011;55448;51.330;4.946;2022-07-29T09:20:23;7.43;;;4.22;;
47605;SDS011;55448;51.330;4.946;2022-07-29T09:22:50;6.20;;;3.85;;
47605;SDS011;55448;51.330;4.946;2022-07-29T09:25:37;11.68;;;5.13;;
47605;SDS011;55448;51.330;4.946;2022-07-29T09:28:07;8.77;;;4.28;;
47605;SDS011;55448;51.330;4.946;2022-07-29T09:31:00;8.43;;;4.25;;
47605;SDS011;55448;51.330;4.946;2022-07-29T09:33:31;6.13;;;4.68;;
47605;SDS011;55448;51.330;4.946;2022-07-29T09:36:08;8.38;;;4.72;;
47605;SDS011;55448;51.330;4.946;2022-07-29T09:38:35;9.80;;;3.92;;
47605;SDS011;55448;51.330;4.946;2022-07-29T09:41:04;9.35;;;3.60;;
47605;SDS011;55448;51.330;4.946;2022-07-29T09:43:30;5.22;;;3.50;;
47605;SDS011;55448;51.330;4.946;2022-07-29T09:45:56;7.07;;;4.05;;
47605;SDS011;55448;51.330;4.946;2022-07-29T09:48:35;9.93;;;4.38;;
47605;SDS011;55448;51.330;4.946;2022-07-29T09:51:00;11.18;;;4.15;;
47605;SDS011;55448;51.330;4.946;2022-07-29T09:55:59;8.23;;;3.45;;
47605;SDS011;55448;51.330;4.946;2022-07-29T09:58:25;8.63;;;3.67;;
47605;SDS011;55448;51.330;4.946;2022-07-29T10:00:52;8.13;;;3.75;;
47605;SDS011;55448;51.330;4.946;2022-07-29T10:03:19;5.15;;;3.78;;
47605;SDS011;55448;51.330;4.946;2022-07-29T10:05:47;7.47;;;3.50;;
47605;SDS011;55448;51.330;4.946;2022-07-29T10:08:33;7.78;;;3.90;;
47605;SDS011;55448;51.330;4.946;2022-07-29T10:11:09;6.82;;;4.10;;
47605;SDS011;55448;51.330;4.946;2022-07-29T10:13:37;8.55;;;4.00;;
47605;SDS011;55448;51.330;4.946;2022-07-29T10:16:04;6.10;;;3.65;;
47605;SDS011;55448;51.330;4.946;2022-07-29T10:18:31;8.75;;;3.90;;
47605;SDS011;55448;51.330;4.946;2022-07-29T10:20:58;7.35;;;3.95;;
47605;SDS011;55448;51.330;4.946;2022-07-29T10:23:26;8.10;;;4.30;;
47605;SDS011;55448;51.330;4.946;2022-07-29T10:25:55;9.05;;;4.45;;
47605;SDS011;55448;51.330;4.946;2022-07-29T10:28:21;7.50;;;3.92;;
47605;SDS011;55448;51.330;4.946;2022-07-29T10:30:48;8.30;;;4.25;;
47605;SDS011;55448;51.330;4.946;2022-07-29T10:36:05;11.32;;;4.13;;
47605;SDS011;55448;51.330;4.946;2022-07-29T10:38:44;10.10;;;4.03;;
47605;SDS011;55448;51.330;4.946;2022-07-29T10:43:51;8.93;;;3.70;;
47605;SDS011;55448;51.330;4.946;2022-07-29T10:46:36;8.95;;;3.70;;
47605;SDS011;55448;51.330;4.946;2022-07-29T10:49:11;7.07;;;4.05;;
47605;SDS011;55448;51.330;4.946;2022-07-29T10:51:59;10.57;;;4.18;;
47605;SDS011;55448;51.330;4.946;2022-07-29T10:57:16;7.50;;;4.95;;
47605;SDS011;55448;51.330;4.946;2022-07-29T11:07:33;7.10;;;3.80;;
47605;SDS011;55448;51.330;4.946;2022-07-29T11:15:10;9.05;;;4.05;;
47605;SDS011;55448;51.330;4.946;2022-07-29T11:22:57;9.60;;;3.65;;
47605;SDS011;55448;51.330;4.946;2022-07-29T11:25:23;8.48;;;3.70;;
47605;SDS011;55448;51.330;4.946;2022-07-29T11:27:49;9.40;;;4.65;;
47605;SDS011;55448;51.330;4.946;2022-07-29T11:30:18;7.68;;;4.10;;
47605;SDS011;55448;51.330;4.946;2022-07-29T11:32:44;6.32;;;3.97;;
47605;SDS011;55448;51.330;4.946;2022-07-29T11:35:19;10.48;;;3.70;;
47605;SDS011;55448;51.330;4.946;2022-07-29T11:43:49;6.65;;;3.20;;
47605;SDS011;55448;51.330;4.946;2022-07-29T11:49:19;4.68;;;3.60;;
47605;SDS011;55448;51.330;4.946;2022-07-29T11:51:52;6.20;;;3.30;;
47605;SDS011;55448;51.330;4.946;2022-07-29T11:54:41;7.10;;;2.97;;
47605;SDS011;55448;51.330;4.946;2022-07-29T11:57:07;8.05;;;3.40;;
47605;SDS011;55448;51.330;4.946;2022-07-29T11:59:40;7.88;;;3.60;;
47605;SDS011;55448;51.330;4.946;2022-07-29T12:02:07;11.75;;;3.85;;
47605;SDS011;55448;51.330;4.946;2022-07-29T12:04:33;6.22;;;3.75;;
47605;SDS011;55448;51.330;4.946;2022-07-29T12:07:13;6.40;;;3.83;;
47605;SDS011;55448;51.330;4.946;2022-07-29T12:09:38;7.07;;;3.53;;
47605;SDS011;55448;51.330;4.946;2022-07-29T12:12:04;7.38;;;4.10;;
47605;SDS011;55448;51.330;4.946;2022-07-29T12:14:31;5.25;;;3.20;;
47605;SDS011;55448;51.330;4.946;2022-07-29T12:16:58;9.35;;;4.00;;
47605;SDS011;55448;51.330;4.946;2022-07-29T12:19:25;8.40;;;3.70;;
47605;SDS011;55448;51.330;4.946;2022-07-29T12:21:52;5.20;;;3.97;;
47605;SDS011;55448;51.330;4.946;2022-07-29T12:24:19;5.55;;;3.65;;
47605;SDS011;55448;51.330;4.946;2022-07-29T12:27:04;6.97;;;4.00;;
47605;SDS011;55448;51.330;4.946;2022-07-29T12:29:29;6.90;;;3.80;;
47605;SDS011;55448;51.330;4.946;2022-07-29T12:31:55;4.95;;;3.00;;
47605;SDS011;55448;51.330;4.946;2022-07-29T12:34:23;7.72;;;3.20;;
47605;SDS011;55448;51.330;4.946;2022-07-29T12:36:51;6.80;;;3.40;;
47605;SDS011;55448;51.330;4.946;2022-07-29T12:39:17;7.30;;;4.05;;
47605;SDS011;55448;51.330;4.946;2022-07-29T12:41:43;8.27;;;3.30;;
47605;SDS011;55448;51.330;4.946;2022-07-29T12:44:09;9.07;;;4.35;;
47605;SDS011;55448;51.330;4.946;2022-07-29T12:46:36;11.73;;;4.72;;
47605;SDS011;55448;51.330;4.946;2022-07-29T12:49:02;7.47;;;3.67;;
47605;SDS011;55448;51.330;4.946;2022-07-29T12:51:33;9.15;;;3.35;;
47605;SDS011;55448;51.330;4.946;2022-07-29T12:54:03;5.82;;;2.90;;
47605;SDS011;55448;51.330;4.946;2022-07-29T12:56:28;4.93;;;2.90;;
47605;SDS011;55448;51.330;4.946;2022-07-29T12:58:54;3.40;;;2.50;;
47605;SDS011;55448;51.330;4.946;2022-07-29T13:01:20;6.72;;;3.10;;
47605;SDS011;55448;51.330;4.946;2022-07-29T13:03:53;6.00;;;3.17;;
47605;SDS011;55448;51.330;4.946;2022-07-29T13:11:27;3.58;;;2.33;;
47605;SDS011;55448;51.330;4.946;2022-07-29T13:13:55;4.72;;;2.10;;
47605;SDS011;55448;51.330;4.946;2022-07-29T13:16:21;7.07;;;2.22;;
47605;SDS011;55448;51.330;4.946;2022-07-29T13:18:47;17.45;;;2.10;;
47605;SDS011;55448;51.330;4.946;2022-07-29T13:21:14;4.20;;;2.10;;
47605;SDS011;55448;51.330;4.946;2022-07-29T13:23:40;3.25;;;1.95;;
47605;SDS011;55448;51.330;4.946;2022-07-29T13:26:07;4.20;;;2.33;;
47605;SDS011;55448;51.330;4.946;2022-07-29T13:28:34;3.92;;;2.10;;
47605;SDS011;55448;51.330;4.946;2022-07-29T13:31:00;3.05;;;2.08;;
47605;SDS011;55448;51.330;4.946;2022-07-29T13:33:25;2.75;;;1.80;;
47605;SDS011;55448;51.330;4.946;2022-07-29T13:35:51;5.15;;;1.90;;
47605;SDS011;55448;51.330;4.946;2022-07-29T13:38:17;5.95;;;2.15;;
47605;SDS011;55448;51.330;4.946;2022-07-29T13:40:43;6.15;;;2.20;;
47605;SDS011;55448;51.330;4.946;2022-07-29T13:43:09;11.38;;;2.15;;
47605;SDS011;55448;51.330;4.946;2022-07-29T13:45:35;4.20;;;2.03;;
47605;SDS011;55448;51.330;4.946;2022-07-29T13:48:01;4.00;;;1.70;;
47605;SDS011;55448;51.330;4.946;2022-07-29T13:50:27;6.03;;;1.92;;
47605;SDS011;55448;51.330;4.946;2022-07-29T13:52:53;4.75;;;2.00;;
47605;SDS011;55448;51.330;4.946;2022-07-29T13:55:18;6.20;;;1.95;;
47605;SDS011;55448;51.330;4.946;2022-07-29T13:57:44;5.22;;;2.25;;
47605;SDS011;55448;51.330;4.946;2022-07-29T14:00:10;4.07;;;2.10;;
47605;SDS011;55448;51.330;4.946;2022-07-29T14:02:37;4.38;;;1.77;;
47605;SDS011;55448;51.330;4.946;2022-07-29T14:05:03;9.40;;;2.40;;
47605;SDS011;55448;51.330;4.946;2022-07-29T14:07:30;3.97;;;2.10;;
47605;SDS011;55448;51.330;4.946;2022-07-29T14:09:56;3.85;;;2.05;;
47605;SDS011;55448;51.330;4.946;2022-07-29T14:12:22;5.22;;;2.22;;
47605;SDS011;55448;51.330;4.946;2022-07-29T14:14:47;5.55;;;1.92;;
47605;SDS011;55448;51.330;4.946;2022-07-29T14:17:14;4.05;;;2.03;;
47605;SDS011;55448;51.330;4.946;2022-07-29T14:19:40;3.15;;;2.00;;
47605;SDS011;55448;51.330;4.946;2022-07-29T14:22:06;4.55;;;2.35;;
47605;SDS011;55448;51.330;4.946;2022-07-29T14:24:33;9.23;;;1.73;;
47605;SDS011;55448;51.330;4.946;2022-07-29T14:27:00;6.00;;;1.90;;
47605;SDS011;55448;51.330;4.946;2022-07-29T14:29:25;3.33;;;1.40;;
47605;SDS011;55448;51.330;4.946;2022-07-29T14:31:51;5.68;;;1.77;;
47605;SDS011;55448;51.330;4.946;2022-07-29T14:34:17;6.78;;;1.48;;
47605;SDS011;55448;51.330;4.946;2022-07-29T14:36:43;3.55;;;1.60;;
47605;SDS011;55448;51.330;4.946;2022-07-29T14:39:08;6.15;;;1.70;;
47605;SDS011;55448;51.330;4.946;2022-07-29T14:41:34;5.47;;;1.75;;
47605;SDS011;55448;51.330;4.946;2022-07-29T14:44:00;1.80;;;1.30;;
47605;SDS011;55448;51.330;4.946;2022-07-29T14:46:26;4.95;;;1.60;;
47605;SDS011;55448;51.330;4.946;2022-07-29T14:48:52;7.30;;;1.73;;
47605;SDS011;55448;51.330;4.946;2022-07-29T14:51:19;2.30;;;1.67;;
47605;SDS011;55448;51.330;4.946;2022-07-29T14:53:45;2.55;;;1.60;;
47605;SDS011;55448;51.330;4.946;2022-07-29T14:56:11;3.22;;;1.88;;
47605;SDS011;55448;51.330;4.946;2022-07-29T14:58:36;6.78;;;1.83;;
47605;SDS011;55448;51.330;4.946;2022-07-29T15:01:02;3.35;;;1.75;;
47605;SDS011;55448;51.330;4.946;2022-07-29T15:03:28;4.82;;;1.98;;
47605;SDS011;55448;51.330;4.946;2022-07-29T15:05:54;3.33;;;1.58;;
47605;SDS011;55448;51.330;4.946;2022-07-29T15:08:19;5.07;;;2.10;;
47605;SDS011;55448;51.330;4.946;2022-07-29T15:10:45;4.18;;;2.15;;
47605;SDS011;55448;51.330;4.946;2022-07-29T15:13:11;5.45;;;2.00;;
47605;SDS011;55448;51.330;4.946;2022-07-29T15:15:37;4.22;;;2.10;;
47605;SDS011;55448;51.330;4.946;2022-07-29T15:18:03;5.63;;;1.83;;
47605;SDS011;55448;51.330;4.946;2022-07-29T15:20:29;9.27;;;2.10;;
47605;SDS011;55448;51.330;4.946;2022-07-29T15:22:55;5.53;;;2.40;;
47605;SDS011;55448;51.330;4.946;2022-07-29T15:25:21;5.45;;;1.98;;
47605;SDS011;55448;51.330;4.946;2022-07-29T15:27:48;3.45;;;2.10;;
47605;SDS011;55448;51.330;4.946;2022-07-29T15:30:13;5.15;;;2.10;;
47605;SDS011;55448;51.330;4.946;2022-07-29T15:32:41;5.78;;;1.90;;
47605;SDS011;55448;51.330;4.946;2022-07-29T15:35:10;6.35;;;2.15;;
47605;SDS011;55448;51.330;4.946;2022-07-29T15:37:37;4.78;;;2.17;;
47605;SDS011;55448;51.330;4.946;2022-07-29T15:40:04;6.55;;;2.08;;
47605;SDS011;55448;51.330;4.946;2022-07-29T15:42:30;6.50;;;1.98;;
47605;SDS011;55448;51.330;4.946;2022-07-29T15:44:56;2.63;;;1.48;;
47605;SDS011;55448;51.330;4.946;2022-07-29T15:47:22;3.97;;;1.98;;